Time;durP1;ratioP1;P1;durP2;ratioP2;P2;SDS_P1;SDS_P2;PMS_P1;PMS_P2;Temp;Humidity;BMP_temperature;BMP_pressure;BME280_temperature;BME280_humidity;BME280_pressure;Samples;Min_cycle;Max_cycle;Signal;HPM_P1;HPM_P2
2022/12/25 00:01:45;;;;;;;18.23;8.90;;;7.20;99.90;;;;;;5023840;28;20207;-64
2022/12/25 00:04:11;;;;;;;19.27;8.23;;;7.20;99.90;;;;;;5025872;28;20196;-65
2022/12/25 00:06:36;;;;;;;14.80;8.23;;;7.20;99.90;;;;;;5026474;28;20206;-65
2022/12/25 00:09:02;;;;;;;12.40;7.87;;;7.20;99.90;;;;;;5026517;28;20194;-64
2022/12/25 00:11:27;;;;;;;19.40;8.20;;;7.10;99.90;;;;;;5025821;28;20206;-64
2022/12/25 00:13:53;;;;;;;14.47;7.83;;;7.00;99.90;;;;;;5023600;28;20202;-63
2022/12/25 00:16:23;;;;;;;16.60;8.27;;;7.00;99.90;;;;;;5025056;28;20726;-72
2022/12/25 00:18:52;;;;;;;19.53;9.20;;;6.90;99.90;;;;;;5023925;28;20518;-68
2022/12/25 00:21:19;;;;;;;20.27;7.90;;;7.00;99.90;;;;;;5025865;28;20738;-67
2022/12/25 00:23:45;;;;;;;19.13;9.00;;;6.90;99.90;;;;;;5024439;28;20636;-71
2022/12/25 00:26:15;;;;;;;16.17;8.93;;;6.90;99.90;;;;;;5027516;28;20598;-67
2022/12/25 00:28:41;;;;;;;19.80;8.07;;;6.80;99.90;;;;;;5029063;28;20933;-67
2022/12/25 00:31:10;;;;;;;18.37;8.00;;;6.70;99.90;;;;;;5025624;28;20264;-69
2022/12/25 00:33:37;;;;;;;15.70;7.80;;;6.70;99.90;;;;;;5025007;28;20200;-68
2022/12/25 00:36:05;;;;;;;12.07;8.20;;;6.60;99.90;;;;;;5024893;28;20202;-69
2022/12/25 00:38:31;;;;;;;21.23;11.27;;;6.60;99.90;;;;;;5024457;28;20924;-68
2022/12/25 00:40:56;;;;;;;19.90;9.73;;;6.50;99.90;;;;;;5026024;28;20584;-69
2022/12/25 00:43:22;;;;;;;15.13;7.87;;;6.50;99.90;;;;;;5027093;28;20213;-68
2022/12/25 00:45:56;;;;;;;18.50;8.57;;;6.50;99.90;;;;;;5020062;28;20204;-69
2022/12/25 00:48:22;;;;;;;16.33;8.20;;;6.40;99.90;;;;;;5024749;28;20203;-69
2022/12/25 00:50:47;;;;;;;16.60;7.87;;;6.40;99.90;;;;;;5023002;28;20233;-63
2022/12/25 00:53:12;;;;;;;16.80;9.00;;;6.40;99.90;;;;;;5023794;28;20198;-61
2022/12/25 00:55:38;;;;;;;22.17;8.43;;;6.30;99.90;;;;;;5021542;28;20964;-62
2022/12/25 00:58:03;;;;;;;12.80;7.60;;;6.30;99.90;;;;;;5023040;28;20207;-63
2022/12/25 01:00:29;;;;;;;17.93;9.30;;;6.30;99.90;;;;;;5025700;28;20245;-63
2022/12/25 01:02:54;;;;;;;21.80;9.50;;;6.30;99.90;;;;;;5030651;28;20537;-62
2022/12/25 01:05:20;;;;;;;16.17;9.37;;;6.30;99.90;;;;;;5027350;28;20199;-66
2022/12/25 01:07:45;;;;;;;17.57;9.67;;;6.30;99.90;;;;;;5026695;28;20314;-63
2022/12/25 01:10:23;;;;;;;21.63;9.20;;;6.30;99.90;;;;;;5026961;28;20342;-63
2022/12/25 01:12:50;;;;;;;21.53;10.90;;;6.20;99.90;;;;;;5027225;28;20190;-63
2022/12/25 01:15:16;;;;;;;29.53;10.57;;;6.20;99.90;;;;;;5029804;28;20199;-61
2022/12/25 01:17:42;;;;;;;16.70;9.80;;;6.20;99.90;;;;;;5027330;28;20210;-60
2022/12/25 01:20:09;;;;;;;22.37;10.00;;;6.20;99.90;;;;;;5028752;28;20462;-60
2022/12/25 01:22:34;;;;;;;21.07;10.50;;;6.10;99.90;;;;;;5029960;28;20798;-61
2022/12/25 01:25:00;;;;;;;24.07;10.97;;;6.10;99.90;;;;;;5029044;28;20244;-60
2022/12/25 01:27:25;;;;;;;28.13;10.47;;;6.10;99.90;;;;;;5025676;28;20203;-60
2022/12/25 01:29:50;;;;;;;25.07;10.23;;;6.10;99.90;;;;;;5028488;28;20798;-61
2022/12/25 01:32:16;;;;;;;22.30;10.60;;;6.10;99.90;;;;;;5026567;28;20238;-61
2022/12/25 01:34:41;;;;;;;19.53;10.70;;;6.10;99.90;;;;;;5028892;28;20238;-62
2022/12/25 01:37:07;;;;;;;27.03;10.47;;;6.10;99.90;;;;;;5034207;28;20203;-62
2022/12/25 01:39:33;;;;;;;18.90;10.40;;;6.00;99.90;;;;;;5029219;28;20219;-60
2022/12/25 01:41:59;;;;;;;29.53;11.37;;;6.00;99.90;;;;;;5027317;28;20194;-63
2022/12/25 01:44:36;;;;;;;18.53;10.40;;;6.00;99.90;;;;;;5027264;28;20738;-64
2022/12/25 01:47:06;;;;;;;23.93;11.30;;;6.00;99.90;;;;;;5027676;28;20672;-64
2022/12/25 01:49:38;;;;;;;22.60;9.70;;;5.90;99.90;;;;;;5026135;28;20304;-63
2022/12/25 01:52:10;;;;;;;22.93;9.50;;;5.90;99.90;;;;;;5024611;28;20196;-63
2022/12/25 01:54:40;;;;;;;19.90;9.57;;;5.90;99.90;;;;;;5028922;28;20302;-63
2022/12/25 01:57:10;;;;;;;20.90;10.17;;;5.80;99.90;;;;;;5031332;28;20198;-61
2022/12/25 01:59:35;;;;;;;14.73;9.57;;;5.80;99.90;;;;;;5028679;28;20229;-62
2022/12/25 02:02:01;;;;;;;26.37;10.37;;;5.80;99.90;;;;;;5027873;28;20709;-62
2022/12/25 02:04:40;;;;;;;15.50;9.10;;;5.80;99.90;;;;;;5025775;28;20213;-61
2022/12/25 02:07:13;;;;;;;16.23;9.83;;;5.80;99.90;;;;;;5028005;28;20453;-63
2022/12/25 02:09:39;;;;;;;22.93;10.37;;;5.70;99.90;;;;;;5026594;28;20214;-62
2022/12/25 02:12:06;;;;;;;21.20;9.53;;;5.70;99.90;;;;;;5028074;28;21019;-63
2022/12/25 02:14:35;;;;;;;23.23;10.43;;;5.70;99.90;;;;;;5028107;28;20203;-62
2022/12/25 02:17:33;;;;;;;18.83;10.37;;;5.60;99.90;;;;;;5025765;28;20206;-62
2022/12/25 02:20:26;;;;;;;16.90;9.37;;;5.70;99.90;;;;;;5025984;28;20226;-62
2022/12/25 02:23:36;;;;;;;17.03;9.07;;;5.70;99.90;;;;;;5026180;28;20207;-63
2022/12/25 02:26:14;;;;;;;24.67;9.57;;;5.60;99.90;;;;;;5028296;28;20329;-61
2022/12/25 02:28:52;;;;;;;13.87;9.00;;;5.60;99.90;;;;;;5027602;28;20803;-62
2022/12/25 02:31:36;;;;;;;17.23;8.73;;;5.50;99.90;;;;;;5038730;28;20237;-62
2022/12/25 02:34:16;;;;;;;18.90;9.43;;;5.50;99.90;;;;;;5039855;28;20228;-64
2022/12/25 02:36:48;;;;;;;22.40;10.50;;;5.40;99.90;;;;;;5034552;28;20209;-63
2022/12/25 02:40:08;;;;;;;18.93;9.20;;;5.40;99.90;;;;;;5042549;28;20202;-63
2022/12/25 03:08:03;;;;;;;20.83;10.80;;;5.40;99.90;;;;;;5036276;28;20206;-60
2022/12/25 03:13:19;;;;;;;18.40;9.70;;;5.30;99.90;;;;;;5036510;28;20394;-61
2022/12/25 03:18:31;;;;;;;21.33;9.77;;;5.30;99.90;;;;;;5027502;28;20297;-61
2022/12/25 03:32:18;;;;;;;19.73;8.97;;;5.10;99.90;;;;;;5027742;28;20205;-61
2022/12/25 04:36:40;;;;;;;11.13;7.80;;;4.50;99.90;;;;;;5030958;28;20236;-63
2022/12/25 04:39:05;;;;;;;14.50;8.63;;;4.40;99.90;;;;;;5038902;28;20620;-62
2022/12/25 04:41:31;;;;;;;12.83;7.60;;;4.40;99.90;;;;;;5037496;28;20256;-61
2022/12/25 04:43:56;;;;;;;10.33;7.77;;;4.40;99.90;;;;;;5035521;28;20652;-62
2022/12/25 04:46:22;;;;;;;18.70;9.77;;;4.40;99.90;;;;;;5034452;28;20291;-63
2022/12/25 04:48:47;;;;;;;16.53;9.13;;;4.40;99.90;;;;;;5036109;28;20195;-62
2022/12/25 04:51:18;;;;;;;14.27;8.20;;;4.40;99.90;;;;;;5037630;28;20347;-62
2022/12/25 04:53:45;;;;;;;19.10;9.47;;;4.40;99.90;;;;;;5037226;28;20752;-62
2022/12/25 04:56:11;;;;;;;16.00;9.13;;;4.40;99.90;;;;;;5034543;28;20252;-62
2022/12/25 04:58:36;;;;;;;11.00;8.73;;;4.40;99.90;;;;;;5039186;28;20191;-63
2022/12/25 05:01:03;;;;;;;13.73;9.43;;;4.40;99.90;;;;;;5038838;28;20198;-62
2022/12/25 05:03:29;;;;;;;13.97;8.20;;;4.50;99.90;;;;;;5034514;28;20507;-62
2022/12/25 05:05:55;;;;;;;15.13;9.30;;;4.50;99.90;;;;;;5038678;28;20260;-63
2022/12/25 05:08:21;;;;;;;14.97;9.23;;;4.50;99.90;;;;;;5033551;28;20576;-60
2022/12/25 05:10:47;;;;;;;17.60;9.30;;;4.50;99.90;;;;;;5038910;28;20737;-61
2022/12/25 05:13:12;;;;;;;16.00;8.70;;;4.50;99.90;;;;;;5039172;28;20247;-61
2022/12/25 05:15:39;;;;;;;14.43;9.30;;;4.50;99.90;;;;;;5038599;28;20202;-61
2022/12/25 05:18:04;;;;;;;13.10;8.27;;;4.50;99.90;;;;;;5038871;28;20203;-61
2022/12/25 05:20:30;;;;;;;13.60;9.23;;;4.50;99.90;;;;;;5031975;28;20211;-61
2022/12/25 05:22:55;;;;;;;15.60;7.43;;;4.40;99.90;;;;;;5038768;28;20694;-60
2022/12/25 05:25:21;;;;;;;15.03;10.33;;;4.40;99.90;;;;;;5032917;28;20361;-60
2022/12/25 05:27:46;;;;;;;19.13;8.90;;;4.40;99.90;;;;;;5037737;28;20734;-60
2022/12/25 05:30:12;;;;;;;16.20;8.87;;;4.40;99.90;;;;;;5038407;28;20210;-62
2022/12/25 05:32:37;;;;;;;14.90;8.30;;;4.40;99.90;;;;;;5036231;28;20663;-61
2022/12/25 05:35:03;;;;;;;15.80;10.13;;;4.40;99.90;;;;;;5025025;28;20195;-61
2022/12/25 05:37:29;;;;;;;22.60;11.90;;;4.30;99.90;;;;;;5028973;28;20203;-62
2022/12/25 05:39:54;;;;;;;24.33;13.10;;;4.30;99.90;;;;;;5027661;28;20220;-60
2022/12/25 05:42:20;;;;;;;16.83;8.47;;;4.40;99.90;;;;;;5028726;28;20647;-61
2022/12/25 05:44:45;;;;;;;16.07;7.80;;;4.40;99.90;;;;;;5029201;28;20730;-62
2022/12/25 05:47:10;;;;;;;20.83;10.37;;;4.30;99.90;;;;;;5026191;28;20198;-62
2022/12/25 05:49:36;;;;;;;19.17;11.70;;;4.30;99.90;;;;;;5027354;28;20985;-61
2022/12/25 05:52:01;;;;;;;18.47;9.53;;;4.30;99.90;;;;;;5027733;28;20222;-62
2022/12/25 05:54:27;;;;;;;17.53;9.00;;;4.30;99.90;;;;;;5028147;28;20565;-61
2022/12/25 05:56:52;;;;;;;19.43;11.83;;;4.30;99.90;;;;;;5027746;28;20213;-61
2022/12/25 05:59:18;;;;;;;21.30;11.93;;;4.30;99.90;;;;;;5032445;28;20310;-61
2022/12/25 06:01:43;;;;;;;19.63;11.13;;;4.40;99.90;;;;;;5026357;28;20206;-62
2022/12/25 06:04:09;;;;;;;20.03;11.30;;;4.40;99.90;;;;;;5028206;28;20302;-61
2022/12/25 06:06:34;;;;;;;18.37;9.20;;;4.40;99.90;;;;;;5030382;28;20213;-61
2022/12/25 06:09:00;;;;;;;12.23;7.83;;;4.40;99.90;;;;;;5025801;28;20657;-63
2022/12/25 06:11:25;;;;;;;13.27;9.20;;;4.40;99.90;;;;;;5028918;28;20216;-63
2022/12/25 06:13:51;;;;;;;14.47;8.63;;;4.30;99.90;;;;;;5026543;28;20202;-63
2022/12/25 06:16:17;;;;;;;13.10;7.77;;;4.30;99.90;;;;;;5027474;28;20191;-63
2022/12/25 06:18:46;;;;;;;11.87;8.10;;;4.30;99.90;;;;;;5027608;28;20198;-62
2022/12/25 06:21:13;;;;;;;14.60;7.83;;;4.20;99.90;;;;;;5027594;28;20214;-61
2022/12/25 06:23:39;;;;;;;14.57;7.93;;;4.20;99.90;;;;;;5027716;28;20227;-61
2022/12/25 06:26:08;;;;;;;14.07;9.00;;;4.30;99.90;;;;;;5027619;28;20209;-62
2022/12/25 06:28:34;;;;;;;15.87;8.97;;;4.30;99.90;;;;;;5031661;28;20289;-62
2022/12/25 06:31:09;;;;;;;14.23;7.80;;;4.30;99.90;;;;;;5031967;28;20232;-62
2022/12/25 06:33:35;;;;;;;12.53;8.13;;;4.40;99.90;;;;;;5036064;28;20199;-62
2022/12/25 06:36:14;;;;;;;13.77;8.17;;;4.40;99.90;;;;;;5033358;28;20206;-62
2022/12/25 06:38:40;;;;;;;17.07;9.23;;;4.30;99.90;;;;;;5026575;28;20195;-62
2022/12/25 06:41:11;;;;;;;19.87;8.53;;;4.30;99.90;;;;;;5027174;28;20207;-62
2022/12/25 06:43:38;;;;;;;13.23;8.07;;;4.30;99.90;;;;;;5026070;28;20233;-62
2022/12/25 06:46:07;;;;;;;14.10;8.63;;;4.30;99.90;;;;;;5035072;28;20198;-62
2022/12/25 06:48:33;;;;;;;14.50;8.30;;;4.20;99.90;;;;;;5027894;28;20256;-62
2022/12/25 06:50:58;;;;;;;10.43;8.70;;;4.20;99.90;;;;;;5027791;28;20218;-63
2022/12/25 06:53:24;;;;;;;13.87;8.00;;;4.30;99.90;;;;;;5025145;28;20194;-62
2022/12/25 06:55:50;;;;;;;15.50;9.10;;;4.20;99.90;;;;;;5026815;28;20557;-62
2022/12/25 06:58:15;;;;;;;19.63;8.87;;;4.20;99.90;;;;;;5029234;28;20194;-62
2022/12/25 07:00:41;;;;;;;13.53;7.87;;;4.20;99.90;;;;;;5035848;28;20841;-62
2022/12/25 07:03:06;;;;;;;16.80;8.87;;;4.20;99.90;;;;;;5032412;28;20908;-62
2022/12/25 07:05:32;;;;;;;13.83;8.40;;;4.20;99.90;;;;;;5036059;28;20202;-60
2022/12/25 07:07:57;;;;;;;15.07;8.70;;;4.20;99.90;;;;;;5040811;28;20204;-60
2022/12/25 07:10:23;;;;;;;19.87;9.73;;;4.20;99.90;;;;;;5042887;28;20297;-61
2022/12/25 07:12:48;;;;;;;20.93;8.67;;;4.20;99.90;;;;;;5038654;28;20663;-61
2022/12/25 07:15:14;;;;;;;21.47;10.63;;;4.20;99.90;;;;;;5036851;28;20197;-61
2022/12/25 07:17:39;;;;;;;16.53;9.23;;;4.20;99.90;;;;;;5036657;28;20699;-61
2022/12/25 07:20:05;;;;;;;21.57;10.13;;;4.20;99.90;;;;;;5034541;28;20514;-61
2022/12/25 07:22:31;;;;;;;14.50;8.83;;;4.20;99.90;;;;;;5036639;28;20688;-61
2022/12/25 07:24:56;;;;;;;15.73;10.03;;;4.20;99.90;;;;;;5035929;28;20233;-61
2022/12/25 07:27:22;;;;;;;16.73;9.53;;;4.30;99.90;;;;;;5035567;28;20225;-61
2022/12/25 07:29:48;;;;;;;14.83;9.23;;;4.30;99.90;;;;;;5034409;28;20194;-60
2022/12/25 07:32:13;;;;;;;15.00;9.33;;;4.30;99.90;;;;;;5034514;28;20191;-61
2022/12/25 07:34:39;;;;;;;12.27;8.00;;;4.20;99.90;;;;;;5036331;28;20210;-60
2022/12/25 07:37:04;;;;;;;11.90;8.80;;;4.20;99.90;;;;;;5036388;28;20202;-61
2022/12/25 07:39:30;;;;;;;12.97;9.67;;;4.20;99.90;;;;;;5036571;28;20289;-61
2022/12/25 07:41:55;;;;;;;15.80;9.53;;;4.20;99.90;;;;;;5035850;28;20263;-61
2022/12/25 07:44:21;;;;;;;13.60;8.33;;;4.30;99.90;;;;;;5028025;28;20203;-61
2022/12/25 07:46:46;;;;;;;18.53;9.77;;;4.40;99.90;;;;;;5023877;28;20264;-61
2022/12/25 07:49:12;;;;;;;13.77;9.30;;;4.50;99.90;;;;;;5026615;28;20206;-61
2022/12/25 07:51:37;;;;;;;19.50;9.60;;;4.50;99.90;;;;;;5024833;28;20235;-61
2022/12/25 07:54:03;;;;;;;40.37;22.07;;;4.50;99.90;;;;;;5025792;28;20616;-61
2022/12/25 07:56:29;;;;;;;25.67;14.63;;;4.50;99.90;;;;;;5025828;28;20191;-61
2022/12/25 07:58:54;;;;;;;12.90;8.13;;;4.50;99.90;;;;;;5023614;28;20509;-61
2022/12/25 08:01:23;;;;;;;13.30;8.93;;;4.50;99.90;;;;;;5026002;28;20297;-61
2022/12/25 08:03:57;;;;;;;26.17;16.03;;;4.40;99.90;;;;;;5026181;28;20350;-61
2022/12/25 08:06:28;;;;;;;16.00;10.40;;;4.40;99.90;;;;;;5025937;28;20331;-61
2022/12/25 08:08:54;;;;;;;12.13;7.80;;;4.50;99.90;;;;;;5025201;28;20225;-62
2022/12/25 08:11:19;;;;;;;10.73;8.07;;;4.50;99.90;;;;;;5024875;28;20366;-62
2022/12/25 08:13:45;;;;;;;19.90;11.70;;;4.50;99.90;;;;;;5025058;28;21128;-61
2022/12/25 08:16:10;;;;;;;13.03;7.87;;;4.50;99.90;;;;;;5028027;28;20241;-62
2022/12/25 08:18:37;;;;;;;14.73;10.83;;;4.50;99.90;;;;;;5021921;28;20204;-62
2022/12/25 08:21:05;;;;;;;13.53;9.87;;;4.60;99.90;;;;;;5022845;28;20215;-62
2022/12/25 08:23:37;;;;;;;22.47;13.77;;;4.60;99.90;;;;;;5025901;28;20233;-62
2022/12/25 08:26:04;;;;;;;26.27;15.63;;;4.70;99.90;;;;;;5027831;28;20239;-62
2022/12/25 08:28:30;;;;;;;32.47;20.13;;;4.70;99.90;;;;;;5024440;28;20600;-60
2022/12/25 08:30:56;;;;;;;30.93;21.27;;;4.80;99.90;;;;;;5024105;28;20210;-62
2022/12/25 08:33:21;;;;;;;17.90;12.10;;;5.00;99.90;;;;;;5025114;28;20194;-62
2022/12/25 08:35:47;;;;;;;16.97;10.30;;;5.10;99.90;;;;;;5024878;28;20644;-61
2022/12/25 08:38:12;;;;;;;13.70;10.30;;;5.20;99.90;;;;;;5024651;28;20286;-62
2022/12/25 08:40:38;;;;;;;12.53;8.97;;;5.20;99.90;;;;;;5025098;28;20204;-63
2022/12/25 08:43:03;;;;;;;13.83;9.00;;;5.30;99.90;;;;;;5025197;28;20794;-63
2022/12/25 08:45:30;;;;;;;11.27;8.17;;;5.30;99.90;;;;;;5023570;28;20256;-62
2022/12/25 08:47:56;;;;;;;14.83;9.13;;;5.30;99.90;;;;;;5025594;28;20593;-62
2022/12/25 08:50:23;;;;;;;12.13;8.63;;;5.40;99.90;;;;;;5025677;28;20788;-62
2022/12/25 08:52:48;;;;;;;11.87;8.47;;;5.40;99.90;;;;;;5027576;28;20199;-61
2022/12/25 08:55:14;;;;;;;13.97;9.60;;;5.50;99.90;;;;;;5025239;28;20202;-62
2022/12/25 08:57:41;;;;;;;11.60;8.87;;;5.60;99.90;;;;;;5025142;28;20199;-63
2022/12/25 09:00:07;;;;;;;11.93;7.83;;;5.60;99.90;;;;;;5025087;28;20191;-63
2022/12/25 09:02:32;;;;;;;18.43;9.47;;;5.60;99.90;;;;;;5024843;28;20202;-61
2022/12/25 09:04:58;;;;;;;12.43;8.10;;;5.60;99.90;;;;;;5025067;28;20268;-61
2022/12/25 09:07:23;;;;;;;15.63;8.67;;;5.60;99.90;;;;;;5024545;28;20646;-61
2022/12/25 09:09:49;;;;;;;15.57;11.20;;;5.60;99.90;;;;;;5023698;28;20261;-60
2022/12/25 09:12:14;;;;;;;15.90;9.63;;;5.60;99.90;;;;;;5023570;28;20196;-61
2022/12/25 09:14:40;;;;;;;20.97;12.53;;;5.60;99.90;;;;;;5025411;28;20199;-60
2022/12/25 09:17:05;;;;;;;12.50;9.53;;;5.70;99.90;;;;;;5025605;28;20627;-61
2022/12/25 09:19:31;;;;;;;17.00;9.50;;;5.70;99.90;;;;;;5032594;28;20210;-61
2022/12/25 09:21:56;;;;;;;18.67;10.73;;;5.80;99.90;;;;;;5034837;28;20207;-61
2022/12/25 09:24:22;;;;;;;19.30;9.90;;;5.80;99.90;;;;;;5035997;28;20226;-61
2022/12/25 09:26:48;;;;;;;14.13;8.57;;;5.80;99.90;;;;;;5028682;28;20199;-61
2022/12/25 09:29:15;;;;;;;19.97;9.77;;;5.80;99.90;;;;;;5038925;28;20277;-61
2022/12/25 09:31:40;;;;;;;20.20;12.87;;;5.80;99.90;;;;;;5038097;28;20210;-61
2022/12/25 09:34:08;;;;;;;17.37;10.27;;;5.80;99.90;;;;;;5038284;28;20526;-62
2022/12/25 09:36:33;;;;;;;20.53;11.57;;;5.90;99.90;;;;;;5036315;28;20218;-61
2022/12/25 09:38:59;;;;;;;16.67;11.30;;;6.00;99.90;;;;;;5038698;28;20202;-61
2022/12/25 09:41:50;;;;;;;13.23;9.60;;;6.00;99.90;;;;;;5037887;28;20236;-61
2022/12/25 09:44:20;;;;;;;14.00;9.67;;;6.00;99.90;;;;;;5038259;28;20211;-61
2022/12/25 09:46:52;;;;;;;16.50;11.17;;;6.00;99.90;;;;;;5036472;28;20206;-62
2022/12/25 09:49:31;;;;;;;17.17;10.83;;;6.00;99.90;;;;;;5036393;28;20206;-62
2022/12/25 09:52:03;;;;;;;22.00;12.30;;;6.00;99.90;;;;;;5042156;28;20920;-62
2022/12/25 09:54:50;;;;;;;16.10;9.97;;;6.00;99.90;;;;;;5044688;28;20596;-62
2022/12/25 09:57:15;;;;;;;15.73;10.63;;;6.10;99.90;;;;;;5045556;28;20209;-61
2022/12/25 09:59:42;;;;;;;22.13;12.10;;;6.20;99.90;;;;;;5046629;28;20194;-61
2022/12/25 10:02:35;;;;;;;15.53;9.93;;;6.30;99.90;;;;;;5043638;28;20304;-62
2022/12/25 10:05:31;;;;;;;14.73;10.33;;;6.50;99.90;;;;;;5033543;28;20213;-63
2022/12/25 10:08:12;;;;;;;16.60;10.53;;;6.70;99.90;;;;;;5042861;28;20198;-61
2022/12/25 10:10:56;;;;;;;16.97;9.67;;;6.70;99.90;;;;;;5041464;28;20213;-60
2022/12/25 10:13:56;;;;;;;14.30;10.07;;;6.70;99.90;;;;;;5027691;28;20283;-65
2022/12/25 10:16:21;;;;;;;14.63;9.07;;;6.60;99.90;;;;;;5026849;28;20296;-66
2022/12/25 10:19:09;;;;;;;17.47;10.33;;;6.60;99.90;;;;;;5025561;28;20570;-65
2022/12/25 10:21:35;;;;;;;16.70;11.47;;;6.60;99.90;;;;;;5027397;28;20550;-66
2022/12/25 10:24:29;;;;;;;16.17;10.93;;;6.70;99.90;;;;;;5027279;28;20222;-72
2022/12/25 10:26:56;;;;;;;15.90;9.67;;;6.70;99.90;;;;;;5027717;28;20209;-66
2022/12/25 10:29:21;;;;;;;15.23;10.17;;;6.80;99.90;;;;;;5034917;28;20256;-66
2022/12/25 10:31:54;;;;;;;13.10;9.93;;;6.80;99.90;;;;;;5039517;28;20226;-66
2022/12/25 10:34:22;;;;;;;16.40;10.30;;;6.80;99.90;;;;;;5034161;28;20238;-65
2022/12/25 10:36:48;;;;;;;13.63;10.10;;;6.80;99.90;;;;;;5026266;28;20212;-65
2022/12/25 10:39:20;;;;;;;14.70;10.70;;;6.80;99.90;;;;;;5027805;28;20230;-68
2022/12/25 10:42:20;;;;;;;14.23;10.70;;;6.80;99.90;;;;;;5028047;28;20204;-63
2022/12/25 10:45:04;;;;;;;22.23;11.73;;;6.80;99.90;;;;;;5034643;28;20195;-66
2022/12/25 10:47:41;;;;;;;13.63;9.00;;;6.90;99.90;;;;;;5035461;28;20561;-66
2022/12/25 10:50:21;;;;;;;16.53;10.83;;;6.90;99.90;;;;;;5025921;28;20218;-65
2022/12/25 10:52:55;;;;;;;18.00;11.27;;;6.90;99.90;;;;;;5025846;28;20210;-64
2022/12/25 10:55:21;;;;;;;17.13;11.47;;;6.80;99.90;;;;;;5026805;28;20200;-64
2022/12/25 10:57:47;;;;;;;20.17;11.87;;;6.80;99.90;;;;;;5026875;28;20253;-64
2022/12/25 11:00:25;;;;;;;16.33;12.07;;;6.70;99.90;;;;;;5027581;28;20208;-64
2022/12/25 11:02:51;;;;;;;20.30;12.80;;;6.70;99.90;;;;;;5027116;28;20755;-65
2022/12/25 11:05:28;;;;;;;21.83;13.50;;;6.70;99.90;;;;;;5030599;28;20198;-64
2022/12/25 11:07:55;;;;;;;20.53;13.57;;;6.60;99.90;;;;;;5036747;28;20674;-61
2022/12/25 11:10:25;;;;;;;23.90;14.87;;;6.70;99.90;;;;;;5035509;28;20313;-64
2022/12/25 11:12:51;;;;;;;25.23;14.23;;;6.80;99.90;;;;;;5036925;28;20202;-64
2022/12/25 11:15:37;;;;;;;16.70;12.47;;;6.90;99.90;;;;;;5035264;28;20203;-66
2022/12/25 11:18:21;;;;;;;22.43;13.33;;;6.90;99.90;;;;;;5036096;28;20276;-65
2022/12/25 11:21:01;;;;;;;22.60;12.77;;;6.90;99.90;;;;;;5036164;28;20472;-65
2022/12/25 11:23:29;;;;;;;17.83;13.27;;;6.80;99.90;;;;;;5034982;28;20191;-64
2022/12/25 11:26:14;;;;;;;19.37;12.97;;;6.90;99.90;;;;;;5023862;28;20203;-65
2022/12/25 11:28:41;;;;;;;19.60;12.87;;;7.10;99.90;;;;;;5036877;28;20202;-64
2022/12/25 11:31:18;;;;;;;19.03;12.93;;;7.10;99.90;;;;;;5040045;28;20241;-64
2022/12/25 11:33:49;;;;;;;16.00;12.27;;;7.10;99.90;;;;;;5042534;28;20248;-64
2022/12/25 11:36:42;;;;;;;15.73;12.80;;;7.10;99.90;;;;;;5042485;28;20684;-65
2022/12/25 11:39:25;;;;;;;16.70;13.27;;;7.10;99.90;;;;;;5036250;28;20191;-64
2022/12/25 11:42:06;;;;;;;24.87;13.53;;;7.00;99.90;;;;;;5038172;28;20223;-64
2022/12/25 11:44:42;;;;;;;19.80;12.60;;;6.80;99.90;;;;;;5040033;28;20302;-64
2022/12/25 11:47:21;;;;;;;21.87;13.53;;;6.70;99.90;;;;;;5042216;28;20233;-65
2022/12/25 11:49:55;;;;;;;21.40;13.97;;;6.70;99.90;;;;;;5043237;28;20198;-63
2022/12/25 11:52:22;;;;;;;24.37;14.47;;;6.60;99.90;;;;;;5032585;28;20206;-68
2022/12/25 11:55:02;;;;;;;21.60;14.03;;;6.60;99.90;;;;;;5033643;28;20202;-68
2022/12/25 11:57:29;;;;;;;23.60;15.07;;;6.60;99.90;;;;;;5036553;28;20237;-67
2022/12/25 12:00:05;;;;;;;24.10;14.43;;;6.60;99.90;;;;;;5035565;28;20202;-67
2022/12/25 12:02:48;;;;;;;19.17;13.20;;;6.60;99.90;;;;;;5035367;28;20247;-69
2022/12/25 12:05:30;;;;;;;19.17;14.50;;;6.70;99.90;;;;;;5033710;28;20207;-68
2022/12/25 12:08:01;;;;;;;18.97;14.03;;;6.70;99.90;;;;;;5035338;28;20570;-67
2022/12/25 12:11:15;;;;;;;18.27;13.57;;;6.70;99.90;;;;;;5026146;28;20222;-67
2022/12/25 12:14:05;;;;;;;17.27;14.10;;;6.70;99.90;;;;;;4964860;28;20313;-69
2022/12/25 12:16:31;;;;;;;26.17;16.87;;;6.70;99.90;;;;;;5022624;28;20495;-69
2022/12/25 12:18:56;;;;;;;20.13;14.03;;;6.80;99.90;;;;;;5025670;28;20233;-68
2022/12/25 12:21:28;;;;;;;20.77;14.37;;;6.80;99.90;;;;;;5025500;28;20274;-69
2022/12/25 12:24:17;;;;;;;27.13;14.80;;;6.80;99.90;;;;;;5022051;28;20219;-68
2022/12/25 12:26:46;;;;;;;20.00;14.23;;;6.90;99.90;;;;;;5024446;28;20202;-66
2022/12/25 12:29:43;;;;;;;19.47;15.33;;;7.00;99.90;;;;;;5026217;28;20252;-68
2022/12/25 12:32:41;;;;;;;21.63;14.37;;;7.00;99.90;;;;;;5021648;28;20222;-68
2022/12/25 12:35:28;;;;;;;20.60;13.37;;;7.10;99.90;;;;;;5023813;28;20218;-68
2022/12/25 12:38:02;;;;;;;17.57;13.13;;;7.10;99.90;;;;;;5026352;28;20681;-71
2022/12/25 12:40:34;;;;;;;19.67;13.40;;;7.10;99.90;;;;;;5036371;28;20245;-67
2022/12/25 12:43:00;;;;;;;21.73;14.30;;;7.10;99.90;;;;;;5034578;28;20210;-67
2022/12/25 12:45:30;;;;;;;16.53;13.13;;;7.10;99.90;;;;;;5030613;28;20632;-67
2022/12/25 12:47:56;;;;;;;19.87;13.43;;;7.00;99.90;;;;;;5024752;28;20226;-67
2022/12/25 12:50:39;;;;;;;19.13;13.50;;;7.00;99.90;;;;;;5037025;28;20726;-68
2022/12/25 12:53:23;;;;;;;19.13;15.07;;;7.00;99.90;;;;;;5027666;28;20194;-68
2022/12/25 12:55:50;;;;;;;19.23;12.63;;;7.00;99.90;;;;;;5035719;28;20235;-67
2022/12/25 12:58:32;;;;;;;17.67;13.23;;;7.10;99.90;;;;;;5038821;28;20205;-68
2022/12/25 13:01:26;;;;;;;23.03;14.07;;;7.10;99.90;;;;;;5049246;28;20198;-68
2022/12/25 13:03:59;;;;;;;25.87;14.53;;;7.10;99.90;;;;;;5045834;28;20643;-68
2022/12/25 13:06:39;;;;;;;21.97;13.47;;;7.10;99.90;;;;;;5042209;28;20248;-68
2022/12/25 13:09:18;;;;;;;103.73;55.07;;;7.00;99.90;;;;;;5029121;28;20799;-68
2022/12/25 13:11:44;;;;;;;38.67;24.00;;;7.10;99.90;;;;;;5026140;28;20226;-68
2022/12/25 13:14:19;;;;;;;19.47;13.90;;;7.20;99.90;;;;;;5032957;28;20186;-68
2022/12/25 13:16:47;;;;;;;26.80;17.53;;;7.30;99.90;;;;;;5037484;28;20603;-68
2022/12/25 13:19:27;;;;;;;20.27;13.13;;;7.30;99.90;;;;;;5029142;28;20211;-68
2022/12/25 13:21:58;;;;;;;43.37;26.97;;;7.30;99.90;;;;;;5029087;28;20213;-69
2022/12/25 13:24:32;;;;;;;13.23;10.97;;;7.30;99.90;;;;;;5037808;28;20532;-69
2022/12/25 13:26:58;;;;;;;16.30;10.70;;;7.30;99.90;;;;;;5047697;28;20240;-68
2022/12/25 13:29:33;;;;;;;15.97;10.83;;;7.20;99.90;;;;;;5045020;28;20231;-68
2022/12/25 13:32:01;;;;;;;15.70;10.47;;;7.20;99.90;;;;;;5040595;28;20302;-71
2022/12/25 13:34:34;;;;;;;16.47;11.57;;;7.20;99.90;;;;;;5033775;28;20291;-68
2022/12/25 13:37:07;;;;;;;19.40;11.00;;;7.20;99.90;;;;;;5028953;28;20188;-69
2022/12/25 13:39:35;;;;;;;12.10;9.17;;;7.10;99.90;;;;;;5025264;28;20296;-68
2022/12/25 13:42:10;;;;;;;11.30;10.10;;;7.10;99.90;;;;;;5029766;28;20238;-68
2022/12/25 13:44:38;;;;;;;12.17;8.90;;;7.10;99.90;;;;;;5029785;28;20318;-68
2022/12/25 13:47:25;;;;;;;47.50;27.90;;;7.00;99.90;;;;;;5027283;28;20253;-68
2022/12/25 13:49:56;;;;;;;13.63;9.13;;;7.00;99.90;;;;;;5036276;28;20186;-67
2022/12/25 13:52:31;;;;;;;13.33;8.13;;;7.00;99.90;;;;;;5042672;28;20218;-69
2022/12/25 13:54:59;;;;;;;10.83;7.43;;;7.10;99.90;;;;;;5041074;28;20195;-68
2022/12/25 13:57:33;;;;;;;25.17;15.00;;;7.10;99.90;;;;;;5040488;28;20220;-68
2022/12/25 14:00:00;;;;;;;19.13;12.33;;;7.10;99.90;;;;;;5041392;28;20289;-69
2022/12/25 14:02:34;;;;;;;25.77;15.57;;;7.10;99.90;;;;;;5042991;28;20206;-69
2022/12/25 14:05:00;;;;;;;14.10;8.20;;;7.10;99.90;;;;;;5040631;28;20197;-69
2022/12/25 14:07:26;;;;;;;49.30;27.97;;;7.10;99.90;;;;;;5038478;28;20201;-68
2022/12/25 14:09:57;;;;;;;7.50;6.83;;;7.10;99.90;;;;;;5042406;28;20607;-67
2022/12/25 14:12:24;;;;;;;9.00;6.50;;;7.00;99.90;;;;;;5043232;28;20259;-69
2022/12/25 14:14:51;;;;;;;15.70;8.97;;;7.00;99.90;;;;;;5043047;28;20989;-68
2022/12/25 14:17:18;;;;;;;11.83;9.07;;;7.00;99.90;;;;;;5042036;28;20202;-67
2022/12/25 14:19:43;;;;;;;15.40;8.47;;;7.00;99.90;;;;;;5043362;28;20198;-69
2022/12/25 14:22:21;;;;;;;11.30;7.63;;;7.00;99.90;;;;;;5043531;28;20201;-71
2022/12/25 14:24:47;;;;;;;13.20;8.00;;;6.90;99.90;;;;;;5036760;28;20233;-65
2022/12/25 14:27:22;;;;;;;10.77;8.23;;;6.90;99.90;;;;;;5028914;28;20196;-67
2022/12/25 14:29:50;;;;;;;11.53;7.30;;;7.00;99.90;;;;;;5028294;28;20607;-66
2022/12/25 14:32:19;;;;;;;7.60;6.83;;;7.10;99.90;;;;;;5029613;28;20211;-66
2022/12/25 14:34:46;;;;;;;11.33;7.63;;;7.10;99.90;;;;;;5024011;28;20218;-64
2022/12/25 14:37:19;;;;;;;8.93;7.17;;;7.10;99.90;;;;;;5027395;28;20668;-65
2022/12/25 14:39:57;;;;;;;15.47;9.07;;;7.20;99.90;;;;;;5027495;28;20200;-65
2022/12/25 14:42:26;;;;;;;47.00;23.07;;;7.20;99.90;;;;;;5024106;28;20222;-67
2022/12/25 14:44:57;;;;;;;12.17;8.90;;;7.20;99.90;;;;;;5027987;28;20210;-65